Time;durP1;ratioP1;P1;durP2;ratioP2;P2;SDS_P1;SDS_P2;PMS_P1;PMS_P2;Temp;Humidity;BMP_temperature;BMP_pressure;BME280_temperature;BME280_humidity;BME280_pressure;Samples;Min_cycle;Max_cycle;Signal;HPM_P1;HPM_P2
2024/03/07 00:00:17;;;;;;;;;35.00;33.33;;;;;-143.90;100.00;76652.75;4960961;28;102490;-71
2024/03/07 00:02:48;;;;;;;;;36.00;29.75;;;;;-143.90;100.00;76665.16;4953541;28;103730;-71
2024/03/07 00:05:17;;;;;;;;;33.33;28.00;;;;;-143.90;100.00;76648.63;4962945;28;102562;-72
2024/03/07 00:07:44;;;;;;;;;40.00;30.33;;;;;-143.90;100.00;76656.88;4962112;28;104900;-72
2024/03/07 00:10:12;;;;;;;;;41.67;33.00;;;;;-143.90;100.00;76661.03;4963170;27;102673;-72
2024/03/07 00:12:40;;;;;;;;;43.33;35.67;;;;;-143.90;100.00;76673.44;4963689;28;101898;-72
2024/03/07 00:15:10;;;;;;;;;47.67;37.33;;;;;-143.90;100.00;76663.09;4956120;28;102581;-71
2024/03/07 00:17:38;;;;;;;;;41.33;37.00;;;;;-143.90;100.00;76669.28;4961225;28;104152;-72
2024/03/07 00:20:09;;;;;;;;;37.33;33.67;;;;;-143.90;100.00;76677.56;4963547;28;102129;-72
2024/03/07 00:22:36;;;;;;;;;50.00;39.33;;;;;-143.90;100.00;76679.63;4962141;28;102306;-71
2024/03/07 00:25:08;;;;;;;;;37.00;32.33;;;;;-143.90;100.00;76658.97;4955788;28;101968;-71
2024/03/07 00:27:36;;;;;;;;;34.00;33.67;;;;;-143.90;100.00;76675.50;4963244;28;108560;-72
2024/03/07 00:30:05;;;;;;;;;50.00;36.00;;;;;-143.90;100.00;76665.16;4965564;28;102337;-72
2024/03/07 00:32:35;;;;;;;;;34.00;29.67;;;;;-143.90;100.00;76665.16;4966273;28;102192;-71
2024/03/07 00:35:05;;;;;;;;;39.00;26.75;;;;;-143.90;100.00;76661.03;4956974;28;102012;-71
2024/03/07 00:37:32;;;;;;;;;34.67;29.00;;;;;-143.90;100.00;76648.63;4965298;28;108867;-71
2024/03/07 00:39:59;;;;;;;;;32.00;27.00;;;;;-143.90;100.00;76646.53;4967402;28;102496;-72
2024/03/07 00:42:27;;;;;;;;;40.67;33.00;;;;;-143.90;100.00;76648.63;4965293;28;102626;-72
2024/03/07 00:44:54;;;;;;;;;37.33;30.67;;;;;-143.90;100.00;76648.63;4958129;28;104762;-71
2024/03/07 00:47:21;;;;;;;;;27.00;24.00;;;;;-143.90;100.00;76642.41;4962563;28;106334;-71
2024/03/07 00:49:47;;;;;;;;;41.33;27.33;;;;;-143.90;100.00;76642.41;4966063;28;102309;-71
2024/03/07 00:52:15;;;;;;;;;39.33;33.33;;;;;-143.90;100.00;76650.69;4965490;28;102220;-71
2024/03/07 00:54:42;;;;;;;;;45.67;38.00;;;;;-143.90;100.00;76648.63;4968406;28;102315;-72
2024/03/07 00:57:09;;;;;;;;;36.00;32.33;;;;;-143.90;100.00;76648.63;4956324;28;103930;-71
2024/03/07 00:59:36;;;;;;;;;36.67;31.33;;;;;-143.90;100.00;76652.75;4964925;28;102769;-72
2024/03/07 01:02:03;;;;;;;;;36.33;24.33;;;;;-143.90;100.00;76652.75;4966832;28;101991;-72
2024/03/07 01:04:33;;;;;;;;;44.67;33.00;;;;;-143.90;100.00;76665.16;4965310;28;102437;-71
2024/03/07 01:07:00;;;;;;;;;37.67;31.67;;;;;-143.90;100.00;76656.88;4956051;27;104342;-72
2024/03/07 01:09:30;;;;;;;;;34.33;30.67;;;;;-143.90;100.00;76652.75;4961905;28;102706;-72
2024/03/07 01:11:59;;;;;;;;;48.33;37.33;;;;;-143.90;100.00;76661.03;4961258;28;101789;-72
2024/03/07 01:14:27;;;;;;;;;42.00;30.00;;;;;-143.90;100.00;76654.81;4964768;28;102325;-72
2024/03/07 01:16:54;;;;;;;;;52.00;40.00;;;;;-143.90;100.00;76661.03;4955290;27;104039;-72
2024/03/07 01:19:21;;;;;;;;;47.33;33.00;;;;;-143.90;100.00;76652.75;4964501;28;102495;-71
2024/03/07 01:21:48;;;;;;;;;52.00;36.67;;;;;-143.90;100.00;76652.75;4967403;28;105020;-72
2024/03/07 01:24:17;;;;;;;;;39.00;30.00;;;;;-143.90;100.00;76652.75;4964568;28;102233;-72
2024/03/07 01:26:44;;;;;;;;;45.33;37.33;;;;;-143.90;100.00;76665.16;4962858;28;104115;-72
2024/03/07 01:29:13;;;;;;;;;38.67;33.00;;;;;-143.90;100.00;76661.03;4954736;28;102450;-71
2024/03/07 01:31:40;;;;;;;;;38.00;31.00;;;;;-143.90;100.00;76652.75;4963701;28;102103;-72
2024/03/07 01:34:07;;;;;;;;;44.00;31.33;;;;;-143.90;100.00;76650.69;4960403;27;102009;-72
2024/03/07 01:36:33;;;;;;;;;51.00;39.33;;;;;-143.90;100.00;76656.88;4964446;28;104184;-73
2024/03/07 01:39:01;;;;;;;;;39.67;31.33;;;;;-143.90;100.00;76652.75;4951819;27;102630;-71
2024/03/07 01:41:28;;;;;;;;;48.67;37.67;;;;;-143.90;100.00;76652.75;4964169;28;102445;-72
2024/03/07 01:43:54;;;;;;;;;47.00;38.33;;;;;-143.90;100.00;76656.88;4963515;28;102159;-71
2024/03/07 01:46:21;;;;;;;;;39.00;32.33;;;;;-143.90;100.00;76648.63;4959716;28;107634;-72
2024/03/07 01:48:48;;;;;;;;;48.00;40.00;;;;;-143.90;100.00;76658.97;4951860;28;102435;-72
2024/03/07 01:51:15;;;;;;;;;39.00;31.33;;;;;-143.90;100.00;76648.63;4956733;28;101975;-71
2024/03/07 01:53:42;;;;;;;;;34.67;31.33;;;;;-143.90;100.00;76661.03;4964425;27;102167;-71
2024/03/07 01:56:09;;;;;;;;;51.00;38.67;;;;;-143.90;100.00;76665.16;4962852;28;104050;-72
2024/03/07 01:58:36;;;;;;;;;42.67;34.00;;;;;-143.90;100.00;76654.81;4963676;28;104893;-71
2024/03/07 02:01:03;;;;;;;;;47.00;37.00;;;;;-143.90;100.00;76652.75;4952453;28;102992;-72
2024/03/07 02:03:30;;;;;;;;;40.67;33.67;;;;;-143.90;100.00;76654.81;4953044;28;102031;-72
2024/03/07 02:05:57;;;;;;;;;38.33;30.67;;;;;-143.90;100.00;76648.63;4959494;28;103896;-71
2024/03/07 02:08:23;;;;;;;;;44.67;34.00;;;;;-143.90;100.00;76652.75;4962190;28;102536;-71
2024/03/07 02:10:50;;;;;;;;;43.00;37.67;;;;;-143.90;100.00;76652.75;4955401;28;102010;-71
2024/03/07 02:13:18;;;;;;;;;54.33;43.00;;;;;-143.90;100.00;76661.03;4957670;27;101967;-71
2024/03/07 02:15:45;;;;;;;;;48.33;39.00;;;;;-143.90;100.00;76665.16;4962584;28;104266;-72
2024/03/07 02:18:12;;;;;;;;;48.33;39.00;;;;;-143.90;100.00;76667.22;4961347;28;102207;-72
2024/03/07 02:20:48;;;;;;;;;48.00;39.33;;;;;-143.90;100.00;76656.88;4963463;28;101797;-71
2024/03/07 02:23:15;;;;;;;;;53.00;41.33;;;;;-143.90;100.00;76673.44;4954856;28;102329;-72
2024/03/07 02:25:42;;;;;;;;;54.33;39.00;;;;;-143.90;100.00;76669.28;4960923;28;104019;-71
2024/03/07 02:28:09;;;;;;;;;54.67;43.00;;;;;-143.90;100.00;76675.50;4961371;28;102326;-73
2024/03/07 02:30:36;;;;;;;;;38.67;29.33;;;;;-143.90;100.00;76667.22;4964423;28;102247;-72
2024/03/07 02:33:06;;;;;;;;;50.33;36.33;;;;;-143.90;100.00;76658.97;4953355;28;102030;-72
2024/03/07 02:35:35;;;;;;;;;38.67;35.00;;;;;-143.90;100.00;76654.81;4964031;28;108712;-71
2024/03/07 02:38:05;;;;;;;;;43.67;29.67;;;;;-143.90;100.00;76652.75;4970005;28;102206;-71
2024/03/07 02:40:32;;;;;;;;;38.33;32.33;;;;;-143.90;100.00;76661.03;4962368;28;102377;-72
2024/03/07 02:42:59;;;;;;;;;48.33;37.00;;;;;-143.90;100.00;76665.16;4951362;28;102487;-72
2024/03/07 02:45:26;;;;;;;;;54.67;39.00;;;;;-143.90;100.00;76665.16;4961313;27;103995;-71
2024/03/07 02:47:53;;;;;;;;;45.33;34.00;;;;;-143.90;100.00;76663.09;4959841;28;102831;-71
2024/03/07 02:50:24;;;;;;;;;53.67;43.67;;;;;-143.90;100.00;76669.28;4963216;28;102249;-71
2024/03/07 02:52:52;;;;;;;;;47.00;38.00;;;;;-143.90;100.00;76661.03;4959462;28;102570;-71
2024/03/07 02:55:20;;;;;;;;;50.33;39.67;;;;;-143.90;100.00;76669.28;4963056;28;104517;-71
2024/03/07 02:57:47;;;;;;;;;51.67;41.00;;;;;-143.90;100.00;76661.03;4963769;28;102156;-71
2024/03/07 03:00:23;;;;;;;;;39.00;30.00;;;;;-143.90;100.00;76656.88;4962291;28;102409;-72
2024/03/07 03:02:53;;;;;;;;;34.00;29.67;;;;;-143.90;100.00;76648.63;4955103;28;102475;-72
2024/03/07 03:05:20;;;;;;;;;36.67;29.33;;;;;-143.90;100.00;76650.69;4962497;27;103998;-72
2024/03/07 03:07:54;;;;;;;;;43.33;33.33;;;;;-143.90;100.00;76648.63;4964072;28;102073;-72
2024/03/07 03:10:26;;;;;;;;;33.33;29.00;;;;;-143.90;100.00;76648.63;4963923;28;102118;-72
2024/03/07 03:12:58;;;;;;;;;47.33;38.00;;;;;-143.90;100.00;76646.53;4956599;28;103581;-72
2024/03/07 03:15:25;;;;;;;;;38.00;33.00;;;;;-143.90;100.00;76644.47;4963292;28;104733;-72
2024/03/07 03:17:53;;;;;;;;;42.00;33.00;;;;;-143.90;100.00;76644.47;4964072;28;103239;-71
2024/03/07 03:20:26;;;;;;;;;50.67;42.00;;;;;-143.90;100.00;76658.97;4964494;28;101807;-72
2024/03/07 03:22:53;;;;;;;;;51.67;38.00;;;;;-143.90;100.00;76671.38;4957090;28;102540;-72
2024/03/07 03:25:41;;;;;;;;;51.33;36.00;;;;;-143.90;100.00;76671.38;4958527;28;109756;-72
2024/03/07 03:28:11;;;;;;;;;52.33;37.00;;;;;-143.90;100.00;76669.28;4967477;28;102352;-71
2024/03/07 03:30:39;;;;;;;;;41.33;34.00;;;;;-143.90;100.00;76665.16;4962472;28;102384;-71
2024/03/07 03:33:06;;;;;;;;;48.00;42.33;;;;;-143.90;100.00;76681.72;4956150;28;102288;-71
2024/03/07 03:35:34;;;;;;;;;43.67;34.33;;;;;-143.90;100.00;76677.56;4962056;28;106283;-71
2024/03/07 03:38:01;;;;;;;;;53.33;40.33;;;;;-143.90;100.00;76679.63;4962374;28;102650;-71
2024/03/07 03:40:28;;;;;;;;;47.67;35.00;;;;;-143.90;100.00;76685.84;4962243;28;105388;-71
2024/03/07 03:42:54;;;;;;;;;45.33;39.00;;;;;-143.90;100.00;76692.03;4957182;28;104760;-71
2024/03/07 03:45:21;;;;;;;;;46.00;37.67;;;;;-143.90;100.00;76681.72;4962524;28;104049;-72
2024/03/07 03:47:48;;;;;;;;;47.00;32.00;;;;;-143.90;100.00;76677.56;4961727;28;102305;-72
2024/03/07 03:50:15;;;;;;;;;53.67;39.67;;;;;-143.90;100.00;76694.13;4960331;28;102039;-73
2024/03/07 03:52:42;;;;;;;;;46.33;39.33;;;;;-143.90;100.00;76702.38;4963567;28;102485;-72
2024/03/07 03:55:12;;;;;;;;;39.00;33.00;;;;;-143.90;100.00;76698.25;4954534;28;104287;-72
2024/03/07 03:57:41;;;;;;;;;39.67;31.00;;;;;-143.90;100.00;76696.19;4961029;28;102408;-72
2024/03/07 04:00:13;;;;;;;;;51.67;38.33;;;;;-143.90;100.00;76706.53;4958333;28;103316;-72
2024/03/07 04:02:44;;;;;;;;;50.33;40.33;;;;;-143.90;100.00;76714.78;4960120;28;104258;-72
2024/03/07 04:05:13;;;;;;;;;50.00;40.33;;;;;-143.90;100.00;76718.94;4948724;28;104007;-72
2024/03/07 04:07:41;;;;;;;;;47.67;38.33;;;;;-143.90;100.00;76727.22;4957443;28;103464;-73
2024/03/07 04:10:09;;;;;;;;;46.33;38.00;;;;;-143.90;100.00;76731.34;4963719;28;105625;-73
2024/03/07 04:12:38;;;;;;;;;65.00;43.67;;;;;-143.90;100.00;76725.13;4964295;28;101944;-72
2024/03/07 04:15:07;;;;;;;;;50.33;41.00;;;;;-143.90;100.00;76747.88;4952886;28;108899;-72
2024/03/07 04:17:34;;;;;;;;;56.33;40.33;;;;;-143.90;100.00;76741.69;4957145;28;102252;-71
2024/03/07 04:20:05;;;;;;;;;50.33;40.00;;;;;-143.90;100.00;76739.63;4962841;28;101855;-71
2024/03/07 04:22:38;;;;;;;;;54.67;40.00;;;;;-143.90;100.00;76741.69;4962848;28;102717;-72
2024/03/07 04:25:07;;;;;;;;;52.00;40.00;;;;;-143.90;100.00;76752.03;4951301;28;107314;-71
2024/03/07 04:27:36;;;;;;;;;42.00;35.33;;;;;-143.90;100.00;76752.03;4960431;28;102433;-71
2024/03/07 04:30:04;;;;;;;;;55.67;44.00;;;;;-143.90;100.00;76752.03;4963130;28;102605;-72
2024/03/07 04:32:42;;;;;;;;;52.67;39.00;;;;;-143.90;100.00;76758.22;4964678;28;102569;-71
2024/03/07 04:35:10;;;;;;;;;40.33;34.33;;;;;-143.90;100.00;76756.16;4948182;28;108944;-72
2024/03/07 04:37:40;;;;;;;;;40.67;33.33;;;;;-143.90;100.00;76764.44;4963155;28;102386;-72
2024/03/07 04:40:18;;;;;;;;;47.67;39.67;;;;;-143.90;100.00;76764.44;4964311;28;102468;-72
2024/03/07 04:42:49;;;;;;;;;44.67;38.00;;;;;-143.90;100.00;76778.91;4964098;28;102014;-72
2024/03/07 04:45:17;;;;;;;;;49.33;39.33;;;;;-143.90;100.00;76772.72;4956681;28;103999;-72
2024/03/07 04:47:46;;;;;;;;;43.00;32.00;;;;;-143.90;100.00;76774.78;4963055;28;105384;-72
2024/03/07 04:50:17;;;;;;;;;60.33;39.33;;;;;-143.90;100.00;76776.84;4962919;28;102520;-71
2024/03/07 04:52:46;;;;;;;;;39.00;33.33;;;;;-143.90;100.00;76787.19;4964769;28;102392;-73
2024/03/07 04:55:14;;;;;;;;;52.33;39.00;;;;;-143.90;100.00;76791.31;4954527;28;104154;-72
2024/03/07 04:57:41;;;;;;;;;43.67;39.00;;;;;-143.90;100.00;76793.38;4962103;28;102328;-73
2024/03/07 05:00:13;;;;;;;;;52.00;42.00;;;;;-143.90;100.00;76809.94;4966314;28;104514;-72
2024/03/07 05:02:44;;;;;;;;;44.33;38.33;;;;;-143.90;100.00;76801.66;4960825;28;102454;-71
2024/03/07 05:05:12;;;;;;;;;56.00;41.00;;;;;-143.90;100.00;76809.94;4949121;28;103826;-72
2024/03/07 05:07:40;;;;;;;;;41.67;30.33;;;;;-143.90;100.00;76809.94;4963280;27;102428;-73
2024/03/07 05:10:08;;;;;;;;;46.33;40.00;;;;;-143.90;100.00;76801.66;4963955;28;102482;-73
2024/03/07 05:12:36;;;;;;;;;57.00;40.00;;;;;-143.90;100.00;76801.66;4967140;28;104823;-73
2024/03/07 05:15:09;;;;;;;;;49.33;39.67;;;;;-143.90;100.00;76801.66;4952989;28;103964;-73
2024/03/07 05:17:38;;;;;;;;;45.67;35.00;;;;;-143.90;100.00;76801.66;4965198;28;101888;-72
2024/03/07 05:20:10;;;;;;;;;44.00;31.00;;;;;-143.90;100.00;76799.59;4967253;28;101923;-72
2024/03/07 05:22:47;;;;;;;;;43.33;32.67;;;;;-143.90;100.00;76805.78;4964810;28;103433;-71
2024/03/07 05:25:16;;;;;;;;;28.00;22.33;;;;;-143.90;100.00;76805.78;4956085;28;109311;-72
2024/03/07 05:27:44;;;;;;;;;51.33;40.00;;;;;-143.90;100.00;76820.28;4964456;28;102951;-73
2024/03/07 05:30:13;;;;;;;;;53.67;41.67;;;;;-143.90;100.00;76818.22;4966017;28;102564;-73
2024/03/07 05:32:40;;;;;;;;;55.00;38.67;;;;;-143.90;100.00;76826.47;4967606;28;103304;-72
2024/03/07 05:35:07;;;;;;;;;47.33;38.00;;;;;-143.90;100.00;76834.75;4953511;28;104062;-73
2024/03/07 05:37:34;;;;;;;;;54.00;40.00;;;;;-143.90;100.00;76838.88;4962931;28;103653;-73
2024/03/07 05:40:03;;;;;;;;;35.00;29.00;;;;;-143.90;100.00;76834.75;4965061;28;101965;-72
2024/03/07 05:42:31;;;;;;;;;45.00;37.33;;;;;-143.90;100.00;76834.75;4966444;28;102490;-73
2024/03/07 05:44:58;;;;;;;;;44.00;34.00;;;;;-143.90;100.00;76836.81;4954968;27;104394;-74
2024/03/07 05:47:25;;;;;;;;;45.33;35.67;;;;;-143.90;100.00;76843.03;4963931;28;102651;-72
2024/03/07 05:49:52;;;;;;;;;46.00;36.00;;;;;-143.90;100.00;76847.16;4965383;28;102643;-72
2024/03/07 05:52:19;;;;;;;;;53.33;40.33;;;;;-143.90;100.00;76845.09;4965862;28;102482;-72
2024/03/07 05:54:46;;;;;;;;;39.33;32.00;;;;;-143.90;100.00;76838.88;4963411;28;104561;-73
2024/03/07 05:57:13;;;;;;;;;46.33;40.00;;;;;-143.90;100.00;76843.03;4957621;28;102522;-72
2024/03/07 05:59:39;;;;;;;;;39.33;37.33;;;;;-143.90;100.00;76843.03;4959771;28;106552;-72
2024/03/07 06:02:06;;;;;;;;;44.00;36.00;;;;;-143.90;100.00;76847.16;4966923;28;102052;-72
2024/03/07 06:04:34;;;;;;;;;47.33;36.00;;;;;-143.90;100.00;76838.88;4976315;28;104165;-72
2024/03/07 06:07:01;;;;;;;;;52.33;37.67;;;;;-143.90;100.00;76845.09;4955470;27;102722;-72
2024/03/07 06:09:28;;;;;;;;;45.00;38.33;;;;;-143.90;100.00;76840.97;4964727;28;102524;-72
2024/03/07 06:11:54;;;;;;;;;54.67;40.33;;;;;-143.90;100.00;76838.88;4964333;28;104710;-72
2024/03/07 06:14:24;;;;;;;;;48.67;41.33;;;;;-143.90;100.00;76834.75;4960917;28;103965;-71
2024/03/07 06:16:51;;;;;;;;;42.33;36.00;;;;;-143.90;100.00;76838.88;4960714;28;102820;-72
2024/03/07 06:19:19;;;;;;;;;57.00;43.67;;;;;-143.90;100.00;76845.09;4958023;28;102024;-71
2024/03/07 06:21:46;;;;;;;;;54.00;39.33;;;;;-143.90;100.00;76840.97;4965135;28;104566;-72
2024/03/07 06:24:15;;;;;;;;;52.00;40.33;;;;;-143.90;100.00;76845.09;4966436;28;103648;-72
2024/03/07 06:26:59;;;;;;;;;42.00;39.33;;;;;-143.90;100.00;76845.09;4963531;28;102419;-72
2024/03/07 06:29:29;;;;;;;;;38.33;32.67;;;;;-143.90;100.00;76834.75;4961372;28;102572;-72
2024/03/07 06:31:57;;;;;;;;;42.00;32.33;;;;;-143.90;100.00;76834.75;4965937;28;102530;-72
2024/03/07 06:34:24;;;;;;;;;43.33;35.33;;;;;-143.90;100.00;76843.03;4962285;28;103900;-71
2024/03/07 06:36:50;;;;;;;;;50.33;40.00;;;;;-143.90;100.00;76834.75;4958875;28;102339;-72
2024/03/07 06:39:21;;;;;;;;;49.33;39.67;;;;;-143.90;100.00;76840.97;4956021;28;102409;-73
2024/03/07 06:41:48;;;;;;;;;53.33;41.33;;;;;-143.90;100.00;76840.97;4962118;28;102779;-73
2024/03/07 06:44:17;;;;;;;;;49.67;42.67;;;;;-143.90;100.00;76845.09;4965004;28;104177;-73
2024/03/07 06:46:45;;;;;;;;;46.67;38.67;;;;;-143.90;100.00;76834.75;4965411;28;105954;-72
2024/03/07 06:49:12;;;;;;;;;54.33;43.00;;;;;-143.90;100.00;76843.03;4955934;28;102113;-73
2024/03/07 06:51:39;;;;;;;;;43.33;33.00;;;;;-143.90;100.00;76836.81;4964107;28;102334;-72
2024/03/07 06:54:06;;;;;;;;;51.33;40.33;;;;;-143.90;100.00;76845.09;4964064;28;103984;-73
2024/03/07 06:56:33;;;;;;;;;52.67;43.67;;;;;-143.90;100.00;76857.50;4962875;28;102662;-72
2024/03/07 06:59:04;;;;;;;;;49.00;40.00;;;;;-143.90;100.00;76855.44;4955027;28;101943;-72
2024/03/07 07:01:31;;;;;;;;;56.33;43.33;;;;;-143.90;100.00;76838.88;4964550;28;102714;-71
2024/03/07 07:03:58;;;;;;;;;61.00;43.67;;;;;-143.90;100.00;76838.88;4963327;28;104005;-72
2024/03/07 07:06:26;;;;;;;;;60.67;45.00;;;;;-143.90;100.00;76840.97;4962965;28;102403;-71
2024/03/07 07:08:52;;;;;;;;;51.00;35.00;;;;;-143.90;100.00;76849.22;4959155;28;102011;-71
2024/03/07 07:11:19;;;;;;;;;54.33;43.00;;;;;-143.90;100.00;76847.16;4960827;28;102429;-73
2024/03/07 07:13:46;;;;;;;;;63.33;43.33;;;;;-143.90;100.00;76851.31;4961524;28;103972;-72
2024/03/07 07:16:13;;;;;;;;;55.67;43.00;;;;;-143.90;100.00;76840.97;4965463;28;102508;-72
2024/03/07 07:18:40;;;;;;;;;53.67;43.00;;;;;-143.90;100.00;76834.75;4963775;28;102077;-72
2024/03/07 07:21:10;;;;;;;;;43.67;34.67;;;;;-143.90;100.00;76822.34;4954671;28;101971;-72
2024/03/07 07:23:38;;;;;;;;;53.33;42.33;;;;;-143.90;100.00;76820.28;4962864;28;104017;-73
2024/03/07 07:26:05;;;;;;;;;40.33;34.33;;;;;-143.90;100.00;76803.72;4961271;28;103535;-72
2024/03/07 07:28:33;;;;;;;;;49.00;41.00;;;;;-143.90;100.00;76826.47;4964290;28;102008;-72
2024/03/07 07:31:00;;;;;;;;;56.00;43.67;;;;;-143.90;100.00;76826.47;4968438;28;102294;-72
2024/03/07 07:33:26;;;;;;;;;51.67;40.33;;;;;-143.90;100.00;76818.22;4961435;28;104131;-71
2024/03/07 07:35:53;;;;;;;;;59.00;44.00;;;;;-143.90;100.00;76843.03;4960938;28;102550;-71
2024/03/07 07:38:20;;;;;;;;;50.33;40.00;;;;;-143.90;100.00;76834.75;4964197;28;102138;-72
2024/03/07 07:40:46;;;;;;;;;57.67;43.00;;;;;-143.90;100.00;76828.53;4966438;28;102709;-72
2024/03/07 07:43:13;;;;;;;;;55.67;41.33;;;;;-143.90;100.00;76816.13;4952581;28;103857;-72
2024/03/07 07:45:54;;;;;;;;;63.00;45.33;;;;;-143.90;100.00;76814.06;4957418;28;102435;-72
2024/03/07 07:48:22;;;;;;;;;51.33;43.00;;;;;-143.90;100.00;76822.34;4961384;28;102120;-72
2024/03/07 07:50:51;;;;;;;;;52.33;44.33;;;;;-143.90;100.00;76822.34;4962352;28;102032;-72
2024/03/07 07:53:18;;;;;;;;;48.00;37.00;;;;;-143.90;100.00;76818.22;4958566;28;104018;-72
2024/03/07 07:55:46;;;;;;;;;53.33;40.00;;;;;-143.90;100.00;76822.34;4965626;28;104654;-72
2024/03/07 07:58:13;;;;;;;;;63.67;44.67;;;;;-143.90;100.00;76836.81;4965471;27;102015;-72
2024/03/07 08:00:42;;;;;;;;;55.00;40.00;;;;;-143.90;100.00;76857.50;4966056;28;102339;-73
2024/03/07 08:03:10;;;;;;;;;59.33;44.67;;;;;-143.90;100.00;76847.16;4949139;28;108655;-72
2024/03/07 08:05:37;;;;;;;;;60.00;44.67;;;;;-143.90;100.00;76845.09;4963160;28;102214;-72
2024/03/07 08:08:06;;;;;;;;;54.00;40.33;;;;;-143.90;100.00;76838.88;4960592;28;102295;-72
2024/03/07 08:10:36;;;;;;;;;51.67;41.67;;;;;-143.90;100.00;76812.00;4964133;28;102694;-72
2024/03/07 08:13:06;;;;;;;;;60.00;42.67;;;;;-143.90;100.00;76793.38;4951902;28;104071;-71
2024/03/07 08:15:33;;;;;;;;;57.00;44.67;;;;;-143.90;100.00;76783.03;4962992;28;102627;-72
2024/03/07 08:18:00;;;;;;;;;65.67;44.00;;;;;-143.90;100.00;76787.19;4958592;28;102256;-72
2024/03/07 08:20:28;;;;;;;;;64.00;46.33;;;;;-143.90;100.00;76772.72;4962314;28;102153;-72
2024/03/07 08:22:56;;;;;;;;;56.00;44.67;;;;;-143.90;100.00;76774.78;4957429;28;104309;-71
2024/03/07 08:25:24;;;;;;;;;58.00;39.33;;;;;-143.90;100.00;76793.38;4963654;28;102735;-71
2024/03/07 08:27:54;;;;;;;;;51.33;42.33;;;;;-143.90;100.00;76797.53;4963652;27;104523;-72
2024/03/07 08:30:21;;;;;;;;;59.33;42.00;;;;;-143.90;100.00;76789.25;4964201;28;102490;-73
2024/03/07 08:32:52;;;;;;;;;60.33;42.00;;;;;-143.90;100.00;76789.25;4961014;28;104156;-72
2024/03/07 08:35:19;;;;;;;;;56.33;42.33;;;;;-143.90;100.00;76789.25;4959149;28;102211;-72
2024/03/07 08:37:55;;;;;;;;;54.33;44.00;;;;;-143.90;100.00;76791.31;4964173;28;102439;-72
2024/03/07 08:40:24;;;;;;;;;64.00;46.33;;;;;-143.90;100.00;76793.38;4963339;28;101953;-72
2024/03/07 08:42:55;;;;;;;;;52.67;42.33;;;;;-143.90;100.00;76797.53;4955306;28;104027;-72
2024/03/07 08:45:23;;;;;;;;;44.67;40.33;;;;;-143.90;100.00;76812.00;4961507;28;102439;-72
2024/03/07 08:47:52;;;;;;;;;66.33;46.33;;;;;-143.90;100.00;76822.34;4960650;28;102238;-72
2024/03/07 08:50:19;;;;;;;;;65.67;48.67;;;;;-143.90;100.00;76824.41;4966006;28;102968;-72
2024/03/07 08:52:50;;;;;;;;;52.33;42.00;;;;;-143.90;100.00;76818.22;4963827;28;104092;-73
2024/03/07 08:55:22;;;;;;;;;58.33;43.33;;;;;-143.90;100.00;76797.53;4957940;28;102523;-72
2024/03/07 08:57:49;;;;;;;;;58.33;43.67;;;;;-143.90;100.00;76793.38;4959074;28;102574;-72
2024/03/07 09:00:24;;;;;;;;;60.67;43.33;;;;;-143.90;100.00;76795.47;4965413;28;104545;-72
2024/03/07 09:02:57;;;;;;;;;51.00;42.00;;;;;-143.90;100.00;76793.38;4960591;28;104259;-73
2024/03/07 09:05:27;;;;;;;;;58.00;40.33;;;;;-143.90;100.00;76799.59;4965915;28;102357;-71
2024/03/07 09:07:55;;;;;;;;;54.33;42.67;;;;;-143.90;100.00;76812.00;4967178;28;102430;-72
2024/03/07 09:10:25;;;;;;;;;62.67;40.67;;;;;-143.90;100.00;76824.41;4973064;28;102290;-72
2024/03/07 09:12:53;;;;;;;;;55.00;40.33;;;;;-143.90;100.00;76818.22;4958738;28;104325;-72
2024/03/07 09:15:22;;;;;;;;;61.67;42.33;;;;;-143.90;100.00;76838.88;4962828;28;102520;-72
2024/03/07 09:17:50;;;;;;;;;58.00;42.67;;;;;-143.90;100.00;76838.88;4962605;28;102316;-72
2024/03/07 09:20:18;;;;;;;;;62.00;42.33;;;;;-143.90;100.00;76838.88;4978500;28;104634;-72
2024/03/07 09:22:48;;;;;;;;;65.00;46.33;;;;;-143.90;100.00;76849.22;4964295;28;104044;-72
2024/03/07 09:25:16;;;;;;;;;58.33;42.00;;;;;-143.90;100.00;76861.63;4954887;28;102320;-72
2024/03/07 09:27:43;;;;;;;;;55.67;41.00;;;;;-143.90;100.00;76849.22;4966954;28;102170;-72
2024/03/07 09:30:16;;;;;;;;;59.33;44.67;;;;;-143.90;100.00;76861.63;4967621;28;102672;-73
2024/03/07 09:32:43;;;;;;;;;48.67;40.00;;;;;-143.90;100.00;76869.91;4967103;28;108638;-72
2024/03/07 09:35:13;;;;;;;;;51.33;43.00;;;;;-143.90;100.00;76859.56;4953966;28;102832;-72
2024/03/07 09:37:42;;;;;;;;;45.33;38.33;;;;;-143.90;100.00;76859.56;4966763;28;102371;-72
2024/03/07 09:40:13;;;;;;;;;66.67;48.00;;;;;-143.90;100.00;76857.50;4964278;28;102429;-72
2024/03/07 09:42:47;;;;;;;;;54.67;42.00;;;;;-143.90;100.00;76857.50;4966823;28;108782;-72
2024/03/07 09:45:17;;;;;;;;;66.00;47.33;;;;;-143.90;100.00;76849.22;4951368;28;102187;-73
2024/03/07 09:47:47;;;;;;;;;57.00;42.33;;;;;-143.90;100.00;76843.03;4966406;28;102255;-73
2024/03/07 09:50:24;;;;;;;;;56.33;42.67;;;;;-143.90;100.00;76843.03;4966395;28;102457;-73
2024/03/07 09:52:53;;;;;;;;;63.00;40.67;;;;;-143.90;100.00;76843.03;4964261;28;108819;-72
2024/03/07 09:55:23;;;;;;;;;48.33;40.00;;;;;-143.90;100.00;76822.34;4963805;27;102544;-72
2024/03/07 09:57:53;;;;;;;;;57.67;40.33;;;;;-143.90;100.00;76838.88;4962548;28;103763;-73
2024/03/07 10:00:25;;;;;;;;;55.33;42.67;;;;;-143.90;100.00;76845.09;4967156;28;102373;-73
2024/03/07 10:03:08;;;;;;;;;53.67;43.00;;;;;-143.90;100.00;76830.63;4957839;28;103980;-73
2024/03/07 10:05:37;;;;;;;;;61.00;44.00;;;;;-143.90;100.00;76834.75;4965549;27;102400;-72
2024/03/07 10:08:06;;;;;;;;;66.67;43.00;;;;;-143.90;100.00;76840.97;4963394;28;103600;-73
2024/03/07 10:10:34;;;;;;;;;58.00;43.33;;;;;-143.90;100.00;76853.38;4964295;28;101962;-72
2024/03/07 10:13:00;;;;;;;;;64.33;47.67;;;;;-143.90;100.00;76838.88;4954561;28;104365;-73
2024/03/07 10:15:32;;;;;;;;;54.33;41.33;;;;;-143.90;100.00;76820.28;4959734;28;102161;-73
2024/03/07 10:18:00;;;;;;;;;53.00;41.67;;;;;-143.90;100.00;76838.88;4962550;28;102989;-72
2024/03/07 10:20:28;;;;;;;;;66.33;46.33;;;;;-143.90;100.00;76849.22;4966037;28;102422;-72
2024/03/07 10:22:56;;;;;;;;;59.67;45.33;;;;;-143.90;100.00;76847.16;4960815;28;104223;-71
2024/03/07 10:25:27;;;;;;;;;59.33;44.00;;;;;-143.90;100.00;76830.63;4961866;28;102542;-72
2024/03/07 10:27:57;;;;;;;;;63.67;47.00;;;;;-143.90;100.00;76843.03;4963397;28;104745;-72
2024/03/07 10:30:25;;;;;;;;;50.00;42.00;;;;;-143.90;100.00;76826.47;4965434;28;102396;-72
2024/03/07 10:32:56;;;;;;;;;63.67;49.33;;;;;-143.90;100.00;76840.97;4962274;28;103779;-72
2024/03/07 10:35:24;;;;;;;;;55.33;44.67;;;;;-143.90;100.00;76849.22;4966614;28;102802;-72
2024/03/07 10:37:56;;;;;;;;;59.00;43.00;;;;;-143.90;100.00;76836.81;4962778;28;102525;-73
2024/03/07 10:40:25;;;;;;;;;58.00;44.00;;;;;-143.90;100.00;76826.47;4965396;28;101872;-71
2024/03/07 10:42:56;;;;;;;;;50.33;36.67;;;;;-143.90;100.00;76822.34;4963393;28;103456;-73
2024/03/07 10:45:23;;;;;;;;;64.00;44.00;;;;;-143.90;100.00;76807.88;4959424;28;102563;-73
2024/03/07 10:47:57;;;;;;;;;47.33;39.00;;;;;-143.90;100.00;76801.66;4963753;28;104664;-72
2024/03/07 10:50:40;;;;;;;;;64.33;46.33;;;;;-143.90;100.00;76809.94;4963396;28;102379;-72
2024/03/07 10:53:17;;;;;;;;;56.33;43.33;;;;;-143.90;100.00;76807.88;4953868;28;104093;-72